Terminal Aerodrome Forecast
Issued by NWS Green Bay, WI

Home | Current Version | Previous Version | Text Only | Print | Product List | Glossary On
Versions: 1 2 3 4 5 6 7 8 9 10 11 12 13 14 15 16 17 18 19 20 21 22 23 24 25 26 27 28 29 30 31 32 33 34 35 36 37 38 39
000
FTUS43 KGRB 021100
TAFGRB
TAF
KGRB 021127Z 0212/0312 09003KT 5SM BR VCSH SCT015 OVC035
      TEMPO 0212/0215 2SM BR BKN015
     FM021500 14003KT 4SM BR BKN015 OVC025
     FM022200 14007KT 5SM -RA BR OVC015
     FM030100 11005KT 2SM RA BR OVC009
     FM030600 21005KT 1/2SM -RA FG OVC004
     FM031000 29008KT 2SM BR VCSH BKN009=

USA.gov is the U.S. government's official web portal to all federal, state and local government web resources and services.